University, New York
Current Conditions -  °F | °C
As of 6:54 AM on Wednesday 26 Nov 2014 (Local Time) from KSYR Reporting Station
Overcast Overcast  
Wind Chill: 36°   Ceiling: 3300
Heat Index: 36°   Visibility: 10mi
Dew Point: 24°   Wind: 3mph
Humidity: 62%   Direction: 330°NNW
Pressure: 30.21"   Gusts: NA
Location:  43.048°N, 76.1477°W
Report Text: KSYR 261154Z 33003KT 10SM OVC033 02/M04 A3021 RMK AO2 SLP228 T00221044 10028 20022 53001
Loading
Personal Weather Stations






























Interactive Weather Map New forecast layout! Learn more

10-Day Weather Forecast

Advertisements
Track Severe Weather on mobile